Ana Sayfa
METAR-TAF:

METAR-TAF

Havaalanları :

Alton / St. Louis, Illinois, Amerika Birleşik Devletleri

Enlem: 38-54N, Boylam: 090-03W, yükseklik: 166 m

Güncel hava durumu gözlemi

Rapor saat 11:50 UTC de 27 dakika önce yapıldı.
Rüzgar güney/güneydoğudan 6 kt
Sıcaklık 23°C
Nem 89%
Basınç 1016 hPa
Görüş mesafesi: 16.1 km
1200 ft yükseklikte parçalı bulutlu

METAR: KALN 181150Z 16006KT 10SM SCT012 23/21 A3001

Saat: 07:17 (12:17 UTC)


TAF: eksik

4.000'den fazla havaalanı için hava durumu gözlemleri ve tahminleri (METAR ve TAF raporları).

Kullanılabilir istasyonlar harita üzerinde sarı ve kırmızı noktalarla gösterilir.

İstasyonun adını görmek için fareyi noktanın üzerinde gezdirin.

Sonrasında hava gözlem ve tahminlerini görmek için tıklayın.

Haritayı değiştirmek için: yaklaştırmak için siyah artı işaretli yeşil düğmeye ve uzaklaştırmak için de eksi işaretli düğmeye hızla tıklayın; bitişik haritalar için yeşil okları kullanın.


METAR-TAF: